createdAt,value
2023-02-23T00:00:35.190Z,9.90
2023-02-23T00:02:38.411Z,10.00
2023-02-23T00:04:41.607Z,10.00
2023-02-23T00:06:44.210Z,10.00
2023-02-23T00:08:47.695Z,10.00
2023-02-23T00:10:51.996Z,10.00
2023-02-23T00:12:54.487Z,10.00
2023-02-23T00:14:58.955Z,10.00
2023-02-23T00:17:01.576Z,10.00
2023-02-23T00:19:06.038Z,10.00
2023-02-23T00:21:10.288Z,9.90
2023-02-23T00:23:14.505Z,9.80
2023-02-23T00:25:18.034Z,9.90
2023-02-23T00:27:21.160Z,9.90
2023-02-23T00:29:25.083Z,9.80
2023-02-23T00:31:29.922Z,9.90
2023-02-23T00:33:34.074Z,9.90
2023-02-23T00:35:36.561Z,9.90
2023-02-23T00:37:39.189Z,9.90
2023-02-23T00:39:43.125Z,10.00
2023-02-23T00:41:46.273Z,9.90
2023-02-23T00:43:48.871Z,10.00
2023-02-23T00:45:53.356Z,10.00
2023-02-23T00:47:56.056Z,10.00
2023-02-23T00:49:58.697Z,9.90
2023-02-23T00:52:03.081Z,9.80
2023-02-23T00:54:06.836Z,9.70
2023-02-23T00:56:11.240Z,9.60
2023-02-23T00:58:13.880Z,9.60
2023-02-23T01:00:19.871Z,9.60
2023-02-23T01:02:22.460Z,9.50
2023-02-23T01:04:25.172Z,9.60
2023-02-23T01:06:27.784Z,9.60
2023-02-23T01:08:32.310Z,9.50
2023-02-23T01:10:36.571Z,9.60
2023-02-23T01:12:39.231Z,9.50
2023-02-23T01:14:42.542Z,9.50
2023-02-23T01:16:46.578Z,9.50
2023-02-23T01:18:50.479Z,9.50
2023-02-23T01:20:53.435Z,9.50
2023-02-23T01:22:55.911Z,9.50
2023-02-23T01:24:58.599Z,9.50
2023-02-23T01:27:01.208Z,9.40
2023-02-23T01:29:04.977Z,9.40
2023-02-23T01:31:08.915Z,9.40
2023-02-23T01:33:13.387Z,9.30
2023-02-23T01:35:16.096Z,9.40
2023-02-23T01:37:18.588Z,9.30
2023-02-23T01:39:21.383Z,9.30
2023-02-23T01:41:24.168Z,9.30
2023-02-23T01:43:26.748Z,9.30
2023-02-23T01:45:30.753Z,9.30
2023-02-23T01:47:34.807Z,9.30
2023-02-23T01:49:37.382Z,9.30
2023-02-23T01:51:42.364Z,9.40
2023-02-23T01:53:46.708Z,9.40
2023-02-23T01:55:50.606Z,9.40
2023-02-23T01:57:55.457Z,9.40
2023-02-23T01:59:58.046Z,9.30
2023-02-23T02:02:00.796Z,9.40
2023-02-23T02:04:05.440Z,9.40
2023-02-23T02:06:09.747Z,9.40
2023-02-23T02:08:12.563Z,9.50
2023-02-23T02:10:19.919Z,9.50
2023-02-23T02:12:22.891Z,9.50
2023-02-23T02:14:27.843Z,9.50
2023-02-23T02:16:59.169Z,9.50
2023-02-23T02:19:10.707Z,9.50
2023-02-23T02:21:22.068Z,9.50
2023-02-23T02:23:36.451Z,9.60
2023-02-23T02:26:03.930Z,9.50
2023-02-23T02:28:24.356Z,9.30
2023-02-23T02:30:46.112Z,9.20
2023-02-23T02:33:07.172Z,9.00
2023-02-23T02:35:22.532Z,9.00
2023-02-23T02:37:29.788Z,9.10
2023-02-23T02:39:35.995Z,9.20
2023-02-23T02:41:42.011Z,9.20
2023-02-23T02:43:46.387Z,9.30
2023-02-23T02:45:50.983Z,9.30
2023-02-23T02:47:57.473Z,9.30
2023-02-23T02:50:02.049Z,9.20
2023-02-23T02:52:06.402Z,9.20
2023-02-23T02:54:12.244Z,9.20
2023-02-23T02:56:19.209Z,9.30
2023-02-23T02:58:24.456Z,9.30
2023-02-23T03:00:46.780Z,9.40
2023-02-23T03:03:07.687Z,9.40
2023-02-23T03:05:32.075Z,9.40
2023-02-23T03:07:55.151Z,9.40
2023-02-23T03:10:18.467Z,9.40
2023-02-23T03:12:43.408Z,9.40
2023-02-23T03:15:06.410Z,9.40
2023-02-23T03:17:30.743Z,9.40
2023-02-23T03:19:52.996Z,9.40
2023-02-23T03:22:15.268Z,9.40
2023-02-23T03:24:37.957Z,9.40
2023-02-23T03:27:00.913Z,9.30
2023-02-23T03:29:23.348Z,9.40
2023-02-23T03:31:46.583Z,9.30
2023-02-23T03:34:09.960Z,9.40
2023-02-23T03:36:32.280Z,9.40
2023-02-23T03:38:55.066Z,9.40
2023-02-23T03:41:17.983Z,9.40
2023-02-23T03:43:41.651Z,9.30
2023-02-23T03:46:04.178Z,9.30
2023-02-23T03:48:27.606Z,9.30
2023-02-23T03:50:50.290Z,9.40
2023-02-23T03:53:12.956Z,9.30
2023-02-23T03:55:34.711Z,9.30
2023-02-23T03:57:55.827Z,9.20
2023-02-23T04:00:18.485Z,9.20
2023-02-23T04:02:40.688Z,9.20
2023-02-23T04:05:03.145Z,9.30
2023-02-23T04:07:26.192Z,9.20
2023-02-23T04:09:47.516Z,9.20
2023-02-23T04:12:09.241Z,9.20
2023-02-23T04:14:13.051Z,9.10
2023-02-23T04:16:15.203Z,9.20
2023-02-23T04:18:18.654Z,9.20
2023-02-23T04:20:21.531Z,9.30
2023-02-23T04:22:24.356Z,9.20
2023-02-23T04:24:26.958Z,9.20
2023-02-23T04:26:29.446Z,9.30
2023-02-23T04:28:31.956Z,9.20
2023-02-23T04:30:34.593Z,9.30
2023-02-23T04:32:37.489Z,9.30
2023-02-23T04:34:43.189Z,9.30
2023-02-23T04:36:46.355Z,9.30
2023-02-23T04:38:48.844Z,9.30
2023-02-23T04:40:51.405Z,9.30
2023-02-23T04:42:53.874Z,9.30
2023-02-23T04:44:56.382Z,9.40
2023-02-23T04:46:58.924Z,9.30
2023-02-23T04:49:04.423Z,9.30
2023-02-23T04:51:07.820Z,9.30
2023-02-23T04:53:10.470Z,9.30
2023-02-23T04:55:15.574Z,9.30
2023-02-23T04:57:18.078Z,9.30
2023-02-23T04:59:20.587Z,9.30
2023-02-23T05:01:23.196Z,9.30
2023-02-23T05:03:25.877Z,9.30
2023-02-23T05:05:28.396Z,9.30
2023-02-23T05:07:30.906Z,9.30
2023-02-23T05:09:34.418Z,9.20
2023-02-23T05:11:37.605Z,9.30
2023-02-23T05:13:41.183Z,9.20
2023-02-23T05:15:43.714Z,9.20
2023-02-23T05:17:46.156Z,9.20
2023-02-23T05:19:48.811Z,9.20
2023-02-23T05:21:51.313Z,9.30
2023-02-23T05:23:53.954Z,9.20
2023-02-23T05:26:00.485Z,9.20
2023-02-23T05:28:03.088Z,9.20
2023-02-23T05:30:07.590Z,9.30
2023-02-23T05:32:10.703Z,9.20
2023-02-23T05:34:13.811Z,9.20
2023-02-23T05:36:17.533Z,9.30
2023-02-23T05:38:20.817Z,9.20
2023-02-23T05:40:23.441Z,9.20
2023-02-23T05:42:25.974Z,9.20
2023-02-23T05:44:28.595Z,9.20
2023-02-23T05:46:31.316Z,9.20
2023-02-23T05:48:34.483Z,9.20
2023-02-23T05:50:37.172Z,9.20
2023-02-23T05:52:41.008Z,9.20
2023-02-23T05:54:43.596Z,9.10
2023-02-23T05:56:46.085Z,9.10
2023-02-23T05:58:48.786Z,9.10
2023-02-23T06:00:51.976Z,9.10
2023-02-23T06:02:55.609Z,9.10
2023-02-23T06:04:58.425Z,9.10
2023-02-23T06:07:01.096Z,9.10
2023-02-23T06:09:04.049Z,9.10
2023-02-23T06:11:06.737Z,9.10
2023-02-23T06:13:09.840Z,9.10
2023-02-23T06:15:12.436Z,9.10
2023-02-23T06:17:14.960Z,9.10
2023-02-23T06:19:17.468Z,9.00
2023-02-23T06:21:21.236Z,9.10
2023-02-23T06:23:23.821Z,9.10
2023-02-23T06:25:26.335Z,9.10
2023-02-23T06:27:28.912Z,9.10
2023-02-23T06:29:31.508Z,9.10
2023-02-23T06:31:34.108Z,9.10
2023-02-23T06:33:36.597Z,9.00
2023-02-23T06:35:39.275Z,9.00
2023-02-23T06:37:42.804Z,9.00
2023-02-23T06:39:45.288Z,9.00
2023-02-23T06:41:48.369Z,9.00
2023-02-23T06:43:51.465Z,9.10
2023-02-23T06:45:53.966Z,9.00
2023-02-23T06:47:56.491Z,9.00
2023-02-23T06:49:59.693Z,9.10
2023-02-23T06:52:02.240Z,9.10
2023-02-23T06:54:04.844Z,9.10
2023-02-23T06:56:09.513Z,9.10
2023-02-23T06:58:13.184Z,9.10
2023-02-23T07:00:17.208Z,9.10
2023-02-23T07:02:19.668Z,9.10
2023-02-23T07:04:22.867Z,9.10
2023-02-23T07:06:26.363Z,9.10
2023-02-23T07:08:29.180Z,9.10
2023-02-23T07:10:36.744Z,9.10
2023-02-23T07:13:00.285Z,9.10
2023-02-23T07:15:06.123Z,9.10
2023-02-23T07:17:10.014Z,9.10
2023-02-23T07:19:13.051Z,9.10
2023-02-23T07:21:15.505Z,9.10
2023-02-23T07:23:18.112Z,9.10
2023-02-23T07:25:21.025Z,9.10
2023-02-23T07:27:23.573Z,9.10
2023-02-23T07:29:27.069Z,9.10
2023-02-23T07:31:29.609Z,9.10
2023-02-23T07:33:32.183Z,9.10
2023-02-23T07:35:34.810Z,9.10
2023-02-23T07:37:38.683Z,9.10
2023-02-23T07:39:43.333Z,9.10
2023-02-23T07:41:45.872Z,9.10
2023-02-23T07:43:50.732Z,9.10
2023-02-23T07:45:53.275Z,9.10
2023-02-23T07:47:55.740Z,9.10
2023-02-23T07:49:59.356Z,9.10
2023-02-23T07:52:01.911Z,9.10
2023-02-23T07:54:04.991Z,9.10
2023-02-23T07:56:09.383Z,9.00
2023-02-23T07:58:12.653Z,9.10
2023-02-23T08:00:15.630Z,9.10
2023-02-23T08:02:18.922Z,9.10
2023-02-23T08:04:21.549Z,9.10
2023-02-23T08:06:24.128Z,9.10
2023-02-23T08:08:26.866Z,9.10
2023-02-23T08:10:29.634Z,9.10
2023-02-23T08:12:33.464Z,9.10
2023-02-23T08:14:35.953Z,9.10
2023-02-23T08:16:38.620Z,9.10
2023-02-23T08:18:41.504Z,9.00
2023-02-23T08:20:47.480Z,9.00
2023-02-23T08:22:53.879Z,9.00
2023-02-23T08:24:56.477Z,9.00
2023-02-23T08:26:59.103Z,9.10
2023-02-23T08:29:01.627Z,9.10
2023-02-23T08:31:06.150Z,9.10
2023-02-23T08:33:09.008Z,9.00
2023-02-23T08:35:11.950Z,9.00
2023-02-23T08:37:14.630Z,9.00
2023-02-23T08:39:17.342Z,9.00
2023-02-23T08:41:20.398Z,9.00
2023-02-23T08:43:23.163Z,9.00
2023-02-23T08:45:27.545Z,9.00
2023-02-23T08:47:30.209Z,9.00
2023-02-23T08:49:32.819Z,9.00
2023-02-23T08:51:35.336Z,9.10
2023-02-23T08:53:37.898Z,9.00
2023-02-23T08:55:40.536Z,9.10
2023-02-23T08:57:43.021Z,9.00
2023-02-23T08:59:45.817Z,9.00
2023-02-23T09:01:48.361Z,9.00
2023-02-23T09:03:50.953Z,9.00
2023-02-23T09:05:53.459Z,9.00
2023-02-23T09:07:55.976Z,9.00
2023-02-23T09:09:58.880Z,9.00
2023-02-23T09:12:01.441Z,9.00
2023-02-23T09:14:03.921Z,9.10
2023-02-23T09:16:07.646Z,9.10
2023-02-23T09:18:13.582Z,9.10
2023-02-23T09:20:16.599Z,9.10
2023-02-23T09:22:19.195Z,9.10
2023-02-23T09:24:21.728Z,9.10
2023-02-23T09:26:25.600Z,9.10
2023-02-23T09:28:31.057Z,9.10
2023-02-23T09:30:33.695Z,9.10
2023-02-23T09:32:36.788Z,9.70
2023-02-23T09:34:39.415Z,9.10
2023-02-23T09:36:41.899Z,9.10
2023-02-23T09:38:44.976Z,9.10
2023-02-23T09:40:49.263Z,9.10
2023-02-23T09:42:57.966Z,9.10
2023-02-23T09:45:25.895Z,9.10
2023-02-23T09:47:35.940Z,9.10
2023-02-23T09:49:40.377Z,9.10
2023-02-23T09:51:45.754Z,9.10
2023-02-23T09:53:50.643Z,9.10
2023-02-23T09:55:54.919Z,9.10
2023-02-23T09:57:59.353Z,9.10
2023-02-23T10:00:02.374Z,9.10
2023-02-23T10:02:08.611Z,9.10
2023-02-23T10:04:13.099Z,9.10
2023-02-23T10:06:17.174Z,9.10
2023-02-23T10:08:22.250Z,9.20
2023-02-23T10:10:27.407Z,9.20
2023-02-23T10:12:32.875Z,9.20
2023-02-23T10:14:39.191Z,9.30
2023-02-23T10:16:45.424Z,9.30
2023-02-23T10:18:50.038Z,9.30
2023-02-23T10:20:55.519Z,9.30
2023-02-23T10:22:59.841Z,9.30
2023-02-23T10:25:04.740Z,9.40
2023-02-23T10:27:12.347Z,9.30
2023-02-23T10:29:18.083Z,9.30
2023-02-23T10:31:29.802Z,9.30
2023-02-23T10:33:33.516Z,9.40
2023-02-23T10:35:37.317Z,9.40
2023-02-23T10:37:40.063Z,9.40
2023-02-23T10:39:42.688Z,9.40
2023-02-23T10:41:45.316Z,9.50
2023-02-23T10:43:47.949Z,9.50
2023-02-23T10:45:51.639Z,9.50
2023-02-23T10:47:55.338Z,9.60
2023-02-23T10:49:58.452Z,9.70
2023-02-23T10:52:02.405Z,9.70
2023-02-23T10:54:26.353Z,9.70
2023-02-23T10:56:33.085Z,9.60
2023-02-23T10:58:40.680Z,9.60
2023-02-23T11:00:51.398Z,9.50
2023-02-23T11:02:55.456Z,9.50
2023-02-23T11:04:58.973Z,9.50
2023-02-23T11:07:08.715Z,9.50
2023-02-23T11:09:18.841Z,9.50
2023-02-23T11:11:25.267Z,9.50
2023-02-23T11:13:28.643Z,9.40
2023-02-23T11:15:49.282Z,9.40
2023-02-23T11:17:38.348Z,9.40
2023-02-23T11:19:41.545Z,9.30
2023-02-23T11:21:45.825Z,9.30
2023-02-23T11:23:49.999Z,9.30
2023-02-23T11:25:55.031Z,9.20
2023-02-23T11:27:57.910Z,9.30
2023-02-23T11:30:02.267Z,9.20
2023-02-23T11:32:10.277Z,9.20
2023-02-23T11:34:13.854Z,9.20
2023-02-23T11:36:18.531Z,9.20
2023-02-23T11:38:22.792Z,9.20
2023-02-23T11:40:26.857Z,9.20
2023-02-23T11:42:31.612Z,9.20
2023-02-23T11:44:34.148Z,9.20
2023-02-23T11:46:38.509Z,9.20
2023-02-23T11:48:43.084Z,9.10
2023-02-23T11:50:47.894Z,9.20
2023-02-23T11:52:52.092Z,9.10
2023-02-23T11:54:56.292Z,9.10
2023-02-23T11:57:01.065Z,9.10
2023-02-23T11:59:06.736Z,9.10
2023-02-23T12:01:12.039Z,9.10
2023-02-23T12:03:16.619Z,9.00
2023-02-23T12:05:20.640Z,9.00
2023-02-23T12:07:29.171Z,9.00
2023-02-23T12:09:32.644Z,9.00
2023-02-23T12:11:37.340Z,8.90
2023-02-23T12:13:41.631Z,8.90
2023-02-23T12:15:46.505Z,8.90
2023-02-23T12:17:50.830Z,8.90
2023-02-23T12:19:55.388Z,8.90
2023-02-23T12:22:00.943Z,8.90
2023-02-23T12:24:06.360Z,8.80
2023-02-23T12:26:11.003Z,8.80
2023-02-23T12:28:19.227Z,8.70
2023-02-23T12:30:21.239Z,8.60
2023-02-23T12:32:24.972Z,8.60
2023-02-23T12:34:30.176Z,8.50
2023-02-23T12:36:34.872Z,8.50
2023-02-23T12:38:40.771Z,8.50
2023-02-23T12:40:44.133Z,8.50
2023-02-23T12:42:49.496Z,8.50
2023-02-23T12:44:53.049Z,8.50
2023-02-23T12:46:57.229Z,8.50
2023-02-23T12:49:05.571Z,8.50
2023-02-23T12:51:11.956Z,8.50
2023-02-23T12:53:18.313Z,8.50
2023-02-23T12:55:22.747Z,8.40
2023-02-23T12:57:28.356Z,8.40
2023-02-23T13:00:07.666Z,8.50
2023-02-23T13:04:33.821Z,8.50
2023-02-23T13:06:39.631Z,8.70
2023-02-23T13:08:56.179Z,8.50
2023-02-23T13:11:01.012Z,8.50
2023-02-23T13:13:07.353Z,8.50
2023-02-23T13:15:13.470Z,8.50
2023-02-23T13:17:25.367Z,8.50
2023-02-23T13:19:29.721Z,8.50
2023-02-23T13:21:34.056Z,8.40
2023-02-23T13:23:38.420Z,8.50
2023-02-23T13:25:44.261Z,8.50
2023-02-23T13:27:48.742Z,8.50
2023-02-23T13:29:54.316Z,8.50
2023-02-23T13:31:57.457Z,8.50
2023-02-23T13:34:01.818Z,8.50
2023-02-23T13:36:05.035Z,8.50
2023-02-23T13:38:12.081Z,8.40
2023-02-23T13:40:21.716Z,8.40
2023-02-23T13:42:31.331Z,8.40
2023-02-23T13:44:35.834Z,8.40
2023-02-23T13:46:42.839Z,8.40
2023-02-23T13:48:56.745Z,8.30
2023-02-23T13:50:54.288Z,8.30
2023-02-23T13:52:59.715Z,8.30
2023-02-23T13:55:03.169Z,8.30
2023-02-23T13:57:07.456Z,8.30
2023-02-23T13:59:11.990Z,8.30
2023-02-23T14:01:15.982Z,8.30
2023-02-23T14:03:22.854Z,8.30
2023-02-23T14:05:27.032Z,8.30
2023-02-23T14:07:30.708Z,8.30
2023-02-23T14:09:36.193Z,8.30
2023-02-23T14:11:50.418Z,8.30
2023-02-23T14:13:58.912Z,8.20
2023-02-23T14:16:15.864Z,8.20
2023-02-23T14:18:32.264Z,8.20
2023-02-23T14:20:42.791Z,8.20
2023-02-23T14:23:07.422Z,8.30
2023-02-23T14:25:41.171Z,8.20
2023-02-23T14:30:14.643Z,8.20
2023-02-23T14:32:30.814Z,8.20
2023-02-23T14:34:47.578Z,8.10
2023-02-23T14:36:52.503Z,8.20
2023-02-23T14:38:59.692Z,8.20
2023-02-23T14:41:02.391Z,8.10
2023-02-23T14:43:06.820Z,8.10
2023-02-23T14:45:17.530Z,8.10
2023-02-23T14:47:20.859Z,8.20
2023-02-23T14:49:25.374Z,8.10
2023-02-23T14:51:34.634Z,8.10
2023-02-23T14:53:38.044Z,8.20
2023-02-23T14:55:43.469Z,8.20
2023-02-23T14:57:45.932Z,8.20
2023-02-23T14:59:52.967Z,8.20
2023-02-23T15:01:55.981Z,8.20
2023-02-23T15:04:09.389Z,8.10
2023-02-23T15:06:12.140Z,8.20
2023-02-23T15:08:15.849Z,8.20
2023-02-23T15:10:20.260Z,8.20
2023-02-23T15:12:26.160Z,8.20
2023-02-23T15:14:30.499Z,8.20
2023-02-23T15:16:34.393Z,8.20
2023-02-23T15:18:38.166Z,8.20
2023-02-23T15:20:42.832Z,8.20
2023-02-23T15:22:46.684Z,8.20
2023-02-23T15:24:50.080Z,8.20
2023-02-23T15:26:52.728Z,8.20
2023-02-23T15:28:56.445Z,8.10
2023-02-23T15:31:01.492Z,8.20
2023-02-23T15:33:05.499Z,8.10
2023-02-23T15:35:11.203Z,8.10
2023-02-23T15:37:16.079Z,8.10
2023-02-23T15:39:20.981Z,8.10
2023-02-23T15:41:25.584Z,8.10
2023-02-23T15:43:29.315Z,8.10
2023-02-23T15:45:33.733Z,8.10
2023-02-23T15:47:37.082Z,8.10
2023-02-23T15:49:41.648Z,8.10
2023-02-23T15:51:48.144Z,8.10
2023-02-23T15:53:50.849Z,8.10
2023-02-23T15:55:55.443Z,8.10
2023-02-23T15:57:58.818Z,8.10
2023-02-23T16:00:07.271Z,8.00
2023-02-23T16:02:16.153Z,8.10
2023-02-23T16:04:18.775Z,8.10
2023-02-23T16:06:23.431Z,8.10
2023-02-23T16:08:26.727Z,8.10
2023-02-23T16:10:30.080Z,8.00
2023-02-23T16:12:33.069Z,8.00
2023-02-23T16:14:37.388Z,8.10
2023-02-23T16:16:39.973Z,8.00
2023-02-23T16:18:42.952Z,8.10
2023-02-23T16:20:53.578Z,8.00
2023-02-23T16:22:57.570Z,8.10
2023-02-23T16:25:01.140Z,8.10
2023-02-23T16:27:04.546Z,8.00
2023-02-23T16:29:08.845Z,8.00
2023-02-23T16:31:13.677Z,8.10
2023-02-23T16:33:19.393Z,8.00
2023-02-23T16:35:21.918Z,8.10
2023-02-23T16:37:26.190Z,8.00
2023-02-23T16:39:30.040Z,8.00
2023-02-23T16:41:34.114Z,8.00
2023-02-23T16:43:36.608Z,8.10
2023-02-23T16:45:41.003Z,8.10
2023-02-23T16:47:46.069Z,8.10
2023-02-23T16:49:48.807Z,8.10
2023-02-23T16:51:51.512Z,8.10
2023-02-23T16:53:54.211Z,8.10
2023-02-23T16:55:59.433Z,7.90
2023-02-23T16:58:03.760Z,8.10
2023-02-23T17:00:11.217Z,8.10
2023-02-23T17:02:13.844Z,8.10
2023-02-23T17:04:17.341Z,8.10
2023-02-23T17:06:20.254Z,8.00
2023-02-23T17:08:24.056Z,8.00
2023-02-23T17:10:28.403Z,8.00
2023-02-23T17:12:32.756Z,8.00
2023-02-23T17:14:35.578Z,7.90
2023-02-23T17:16:38.134Z,8.00
2023-02-23T17:18:42.968Z,8.00
2023-02-23T17:20:45.303Z,8.00
2023-02-23T17:22:49.325Z,8.00
2023-02-23T17:24:51.952Z,8.00
2023-02-23T17:26:54.894Z,7.90
2023-02-23T17:28:57.424Z,7.90
2023-02-23T17:31:00.040Z,7.90
2023-02-23T17:33:03.315Z,7.90
2023-02-23T17:35:06.603Z,7.90
2023-02-23T17:37:09.121Z,7.90
2023-02-23T17:39:13.455Z,7.90
2023-02-23T17:41:16.610Z,7.90
2023-02-23T17:43:19.690Z,7.90
2023-02-23T17:45:22.455Z,7.80
2023-02-23T17:47:25.117Z,7.90
2023-02-23T17:49:27.682Z,8.00
2023-02-23T17:51:30.188Z,8.00
2023-02-23T17:53:32.825Z,8.00
2023-02-23T17:55:35.474Z,7.90
2023-02-23T17:57:38.037Z,7.90
2023-02-23T17:59:40.590Z,7.90
2023-02-23T18:01:43.173Z,7.90
2023-02-23T18:03:47.253Z,7.90
2023-02-23T18:05:49.757Z,7.90
2023-02-23T18:07:52.283Z,7.90
2023-02-23T18:09:54.821Z,7.80
2023-02-23T18:11:57.412Z,7.90
2023-02-23T18:14:01.341Z,7.80
2023-02-23T18:16:05.665Z,7.80
2023-02-23T18:18:08.199Z,7.80
2023-02-23T18:20:14.027Z,7.80
2023-02-23T18:22:16.975Z,7.80
2023-02-23T18:24:20.417Z,7.80
2023-02-23T18:26:23.829Z,7.80
2023-02-23T18:28:26.425Z,7.80
2023-02-23T18:30:29.036Z,7.80
2023-02-23T18:32:31.681Z,7.80
2023-02-23T18:34:34.791Z,7.70
2023-02-23T18:36:37.677Z,7.70
2023-02-23T18:38:40.346Z,7.80
2023-02-23T18:40:43.006Z,7.70
2023-02-23T18:42:45.656Z,7.70
2023-02-23T18:44:48.270Z,7.70
2023-02-23T18:46:50.828Z,7.70
2023-02-23T18:48:54.167Z,7.70
2023-02-23T18:50:58.602Z,7.70
2023-02-23T18:53:02.999Z,7.70
2023-02-23T18:55:07.353Z,7.70
2023-02-23T18:57:09.854Z,7.70
2023-02-23T18:59:12.397Z,7.70
2023-02-23T19:01:17.511Z,7.70
2023-02-23T19:03:20.140Z,7.70
2023-02-23T19:05:22.772Z,7.80
2023-02-23T19:07:25.263Z,7.70
2023-02-23T19:09:27.794Z,7.70
2023-02-23T19:11:30.999Z,7.80
2023-02-23T19:13:33.723Z,7.70
2023-02-23T19:15:36.244Z,7.80
2023-02-23T19:17:38.856Z,7.70
2023-02-23T19:19:41.466Z,7.70
2023-02-23T19:21:44.160Z,7.70
2023-02-23T19:23:46.671Z,7.70
2023-02-23T19:25:49.893Z,7.80
2023-02-23T19:27:53.055Z,7.70
2023-02-23T19:29:55.504Z,7.70
2023-02-23T19:31:58.270Z,7.70
2023-02-23T19:34:02.752Z,7.70
2023-02-23T19:36:06.114Z,7.70
2023-02-23T19:38:09.535Z,7.70
2023-02-23T19:40:16.137Z,7.80
2023-02-23T19:42:19.914Z,7.60
2023-02-23T19:44:22.559Z,7.60
2023-02-23T19:46:26.971Z,7.70
2023-02-23T19:48:29.606Z,7.70
2023-02-23T19:50:32.219Z,7.60
2023-02-23T19:52:34.792Z,7.60
2023-02-23T19:54:38.251Z,7.60
2023-02-23T19:56:40.761Z,7.60
2023-02-23T19:58:51.700Z,7.60
2023-02-23T20:00:56.884Z,7.70
2023-02-23T20:03:01.195Z,7.70
2023-02-23T20:05:04.542Z,7.70
2023-02-23T20:07:09.205Z,7.70
2023-02-23T20:09:11.705Z,7.70
2023-02-23T20:11:14.942Z,7.70
2023-02-23T20:13:17.919Z,7.70
2023-02-23T20:15:21.122Z,7.70
2023-02-23T20:17:23.639Z,7.70
2023-02-23T20:19:26.320Z,7.70
2023-02-23T20:21:30.045Z,7.70
2023-02-23T20:23:46.737Z,7.70
2023-02-23T20:26:12.636Z,7.70
2023-02-23T20:28:33.025Z,7.70
2023-02-23T20:30:35.672Z,7.70
2023-02-23T20:33:09.311Z,7.70
2023-02-23T20:35:11.438Z,7.70
2023-02-23T20:37:13.947Z,7.70
2023-02-23T20:39:17.482Z,7.70
2023-02-23T20:41:20.551Z,7.70
2023-02-23T20:43:23.332Z,7.70
2023-02-23T20:45:26.719Z,7.70
2023-02-23T20:47:29.248Z,7.70
2023-02-23T20:49:31.843Z,7.70
2023-02-23T20:51:34.433Z,7.70
2023-02-23T20:53:36.919Z,7.70
2023-02-23T20:55:39.627Z,7.60
2023-02-23T20:57:42.089Z,7.70
2023-02-23T20:59:44.640Z,7.70
2023-02-23T21:01:47.590Z,7.70
2023-02-23T21:03:50.588Z,7.70
2023-02-23T21:05:53.201Z,7.70
2023-02-23T21:07:58.747Z,7.70
2023-02-23T21:10:01.405Z,7.60
2023-02-23T21:12:04.307Z,7.60
2023-02-23T21:14:07.850Z,7.70
2023-02-23T21:16:14.032Z,7.60
2023-02-23T21:18:16.541Z,7.60
2023-02-23T21:20:20.952Z,7.50
2023-02-23T21:22:23.717Z,7.40
2023-02-23T21:24:26.905Z,7.30
2023-02-23T21:26:30.292Z,7.30
2023-02-23T21:28:32.793Z,7.20
2023-02-23T21:30:35.301Z,7.10
2023-02-23T21:32:41.049Z,7.10
2023-02-23T21:34:43.820Z,7.00
2023-02-23T21:36:46.840Z,7.00
2023-02-23T21:38:49.349Z,6.90
2023-02-23T21:40:51.940Z,6.90
2023-02-23T21:42:54.449Z,6.90
2023-02-23T21:44:56.957Z,6.90
2023-02-23T21:46:59.978Z,6.80
2023-02-23T21:49:04.637Z,6.80
2023-02-23T21:51:08.375Z,6.80
2023-02-23T21:53:12.216Z,6.70
2023-02-23T21:55:23.590Z,6.70
2023-02-23T21:57:22.137Z,6.70
2023-02-23T21:59:24.632Z,6.60
2023-02-23T22:01:28.192Z,6.60
2023-02-23T22:03:30.778Z,6.60
2023-02-23T22:05:34.487Z,6.50
2023-02-23T22:07:37.017Z,6.50
2023-02-23T22:09:39.460Z,6.50
2023-02-23T22:11:44.053Z,6.50
2023-02-23T22:13:46.753Z,6.40
2023-02-23T22:15:49.370Z,6.50
2023-02-23T22:17:52.276Z,6.40
2023-02-23T22:19:55.389Z,6.40
2023-02-23T22:21:58.328Z,6.40
2023-02-23T22:24:03.556Z,6.40
2023-02-23T22:26:07.569Z,6.40
2023-02-23T22:28:11.103Z,6.40
2023-02-23T22:30:15.312Z,6.40
2023-02-23T22:32:18.294Z,6.40
2023-02-23T22:34:21.172Z,6.40
2023-02-23T22:36:23.684Z,6.30
2023-02-23T22:38:30.036Z,6.30
2023-02-23T22:40:32.511Z,6.40
2023-02-23T22:42:35.158Z,6.30
2023-02-23T22:44:38.849Z,6.30
2023-02-23T22:46:41.700Z,6.20
2023-02-23T22:48:44.661Z,6.20
2023-02-23T22:50:47.362Z,6.30
2023-02-23T22:52:50.198Z,6.20
2023-02-23T22:54:52.993Z,6.20
2023-02-23T22:56:55.920Z,6.20
2023-02-23T22:59:00.927Z,6.20
2023-02-23T23:01:05.329Z,6.20
2023-02-23T23:03:07.898Z,6.10
2023-02-23T23:05:13.030Z,6.10
2023-02-23T23:07:15.477Z,6.10
2023-02-23T23:09:20.104Z,6.10
2023-02-23T23:11:25.477Z,6.00
2023-02-23T23:13:27.970Z,6.00
2023-02-23T23:15:32.262Z,6.00
2023-02-23T23:17:34.768Z,5.90
2023-02-23T23:19:38.391Z,5.90
2023-02-23T23:21:41.679Z,5.80
2023-02-23T23:23:44.766Z,5.80
2023-02-23T23:25:47.430Z,5.80
2023-02-23T23:27:52.332Z,5.80
2023-02-23T23:29:54.903Z,5.80
2023-02-23T23:31:57.803Z,5.80
2023-02-23T23:34:01.609Z,5.70
2023-02-23T23:36:06.472Z,5.70
2023-02-23T23:38:09.605Z,5.70
2023-02-23T23:40:14.118Z,5.60
2023-02-23T23:42:16.672Z,5.60
2023-02-23T23:44:20.288Z,5.50
2023-02-23T23:46:24.597Z,5.50
2023-02-23T23:48:27.942Z,5.50
2023-02-23T23:50:30.508Z,5.50
2023-02-23T23:52:34.474Z,5.60
2023-02-23T23:54:38.606Z,5.50
2023-02-23T23:56:41.361Z,5.50
2023-02-23T23:58:43.908Z,5.40
